KTUS/TUS METAR and TAF weather

Enter ICAO airport designator
Station Type Date Time Source
KTUS METAR 2020/07/10 15:53 UTC NOAA

KTUS 101553Z 23004KT 10SM CLR 32/12 A3012 RMK AO2 SLP140 T03220117


Station Type Date Time Source
KTUS Decoded METAR 2020/07/10 15:53 UTC NOAA

TUCSON INTERNATIONAL AIRPORT , AZ, United States (KTUS) 32-08N 110-57W 786M
Jul 10, 2020 - 11:53 AM EDT / 2020.07.10 1553 UTC
Wind: from the SW (230 degrees) at 5 MPH (4 KT):0
Visibility: 10 mile(s):0
Sky conditions: clear
Temperature: 90.0 F (32.2 C)
Dew Point: 53.1 F (11.7 C)
Relative Humidity: 28%
Pressure (altimeter): 30.12 in. Hg (1019 hPa)
ob: KTUS 101553Z 23004KT 10SM CLR 32/12 A3012 RMK AO2 SLP140 T03220117
cycle: 16

Station Type Date Time Source
KTUS TAF 2020/07/10 12:22 UTC NOAA

TAF KTUS 101120Z 1012/1112 14007KT P6SM FEW150 BKN200
FM102000 32009KT P6SM SCT110
FM102300 34012G20KT P6SM SCT100 BKN200
FM110300 18008KT P6SM BKN200

Example: see airport list